Time;durP1;ratioP1;P1;durP2;ratioP2;P2;SDS_P1;SDS_P2;PMS_P1;PMS_P2;Temp;Humidity;BMP_temperature;BMP_pressure;BME280_temperature;BME280_humidity;BME280_pressure;Samples;Min_cycle;Max_cycle;Signal;HPM_P1;HPM_P2
2021/12/01 00:00:08;;;;;;;1.13;1.02;;;8.30;55.70;;;;;;5107683;27;34273;-76
2021/12/01 00:02:34;;;;;;;1.50;1.30;;;8.30;55.70;;;;;;5107371;27;34316;-76
2021/12/01 00:05:00;;;;;;;1.40;1.30;;;8.30;55.70;;;;;;5126380;27;34103;-76
2021/12/01 00:07:26;;;;;;;1.55;1.38;;;8.30;55.60;;;;;;5107311;27;34494;-77
2021/12/01 00:09:52;;;;;;;1.30;1.20;;;8.30;55.70;;;;;;5092187;27;34585;-76
2021/12/01 00:12:18;;;;;;;1.60;1.15;;;8.20;55.80;;;;;;5089511;27;36033;-77
2021/12/01 00:14:44;;;;;;;1.42;1.33;;;8.20;55.70;;;;;;5089048;27;34230;-76
2021/12/01 00:17:12;;;;;;;1.25;1.15;;;8.20;55.90;;;;;;5107445;27;34233;-76
2021/12/01 00:19:39;;;;;;;1.52;1.27;;;8.20;55.90;;;;;;5089963;27;34293;-76
2021/12/01 00:22:05;;;;;;;1.40;1.30;;;8.20;55.80;;;;;;5106488;27;35785;-76
2021/12/01 00:24:31;;;;;;;2.20;1.30;;;8.20;55.80;;;;;;5089642;27;34197;-76
2021/12/01 00:26:57;;;;;;;1.40;1.30;;;8.20;55.90;;;;;;5125185;27;34306;-76
2021/12/01 00:29:23;;;;;;;1.50;1.38;;;8.20;55.70;;;;;;5106628;27;34385;-76
2021/12/01 00:31:49;;;;;;;1.20;1.10;;;8.20;55.80;;;;;;5106411;27;35860;-76
2021/12/01 00:34:16;;;;;;;1.13;1.02;;;8.20;55.80;;;;;;5106618;27;34128;-77
2021/12/01 00:36:42;;;;;;;1.25;1.15;;;8.20;56.00;;;;;;5125293;27;34114;-76
2021/12/01 00:39:08;;;;;;;1.20;1.10;;;8.20;56.00;;;;;;5106303;27;34154;-76
2021/12/01 00:41:34;;;;;;;1.10;1.10;;;8.10;55.90;;;;;;5106067;27;36331;-76
2021/12/01 00:44:00;;;;;;;1.80;1.38;;;8.10;56.10;;;;;;5106922;27;34316;-76
2021/12/01 00:46:38;;;;;;;1.35;1.25;;;8.20;56.10;;;;;;5107840;27;34463;-77
2021/12/01 00:49:04;;;;;;;1.60;1.40;;;8.10;56.30;;;;;;5124543;27;34126;-77
2021/12/01 00:51:30;;;;;;;1.70;1.38;;;8.10;56.30;;;;;;5088868;27;36432;-77
2021/12/01 00:53:56;;;;;;;2.10;1.55;;;8.10;56.30;;;;;;5106340;27;34147;-77
2021/12/01 00:56:22;;;;;;;1.50;1.40;;;8.10;56.40;;;;;;5106632;27;34217;-77
2021/12/01 00:58:48;;;;;;;3.47;1.63;;;8.10;56.20;;;;;;5126009;27;34173;-76
2021/12/01 01:01:14;;;;;;;2.40;1.70;;;8.10;56.30;;;;;;5106903;27;34592;-77
2021/12/01 01:03:40;;;;;;;2.22;1.75;;;8.10;56.20;;;;;;5123776;27;34078;-77
2021/12/01 01:06:06;;;;;;;2.25;1.90;;;8.20;56.20;;;;;;5108241;27;34300;-76
2021/12/01 01:08:32;;;;;;;1.73;1.58;;;8.10;56.20;;;;;;5125945;27;34381;-77
2021/12/01 01:16:24;;;;;;;2.60;2.25;;;8.10;56.20;;;;;;5125648;27;34303;-78
2021/12/01 01:18:57;;;;;;;2.03;1.88;;;8.20;56.20;;;;;;5106154;27;34102;-76
2021/12/01 01:21:26;;;;;;;2.55;2.20;;;8.20;56.10;;;;;;5105973;27;36283;-76
2021/12/01 01:23:52;;;;;;;2.70;2.33;;;8.20;56.10;;;;;;5107399;27;34201;-77
2021/12/01 01:26:20;;;;;;;3.00;2.13;;;8.20;56.20;;;;;;5090301;27;34236;-77
2021/12/01 01:28:47;;;;;;;2.25;2.00;;;8.20;56.20;;;;;;5090239;27;34528;-77
2021/12/01 01:31:14;;;;;;;2.55;1.88;;;8.20;56.20;;;;;;5090995;27;35851;-77
2021/12/01 01:33:40;;;;;;;2.00;1.80;;;8.20;56.30;;;;;;5105679;27;34072;-77
2021/12/01 01:36:06;;;;;;;2.20;1.95;;;8.20;56.20;;;;;;5090022;27;34679;-77
2021/12/01 01:38:33;;;;;;;2.60;2.00;;;8.20;56.20;;;;;;5088586;27;34395;-76
2021/12/01 01:41:02;;;;;;;2.00;1.90;;;8.20;56.10;;;;;;5123588;27;34422;-77
2021/12/01 01:43:28;;;;;;;2.67;1.90;;;8.20;56.20;;;;;;5088231;27;34235;-76
2021/12/01 01:45:55;;;;;;;3.10;2.50;;;8.20;56.10;;;;;;5105970;27;34312;-76
2021/12/01 01:48:29;;;;;;;2.63;2.33;;;8.20;56.10;;;;;;5089743;27;34396;-75
2021/12/01 01:50:56;;;;;;;3.72;2.30;;;8.20;56.30;;;;;;5107263;27;34115;-77
2021/12/01 01:53:24;;;;;;;3.92;2.85;;;8.20;56.20;;;;;;5090501;27;34427;-77
2021/12/01 01:55:55;;;;;;;4.47;3.08;;;8.20;56.20;;;;;;5107491;27;34161;-76
2021/12/01 01:58:22;;;;;;;4.10;2.85;;;8.20;56.20;;;;;;5106942;27;34125;-76
2021/12/01 02:00:52;;;;;;;4.22;2.75;;;8.10;56.40;;;;;;5089395;27;35508;-77
2021/12/01 02:03:20;;;;;;;4.47;3.20;;;8.20;56.20;;;;;;5123968;27;34165;-76
2021/12/01 02:05:47;;;;;;;5.03;3.28;;;8.20;56.10;;;;;;5107066;27;34411;-76
2021/12/01 02:08:17;;;;;;;4.47;3.35;;;8.20;56.00;;;;;;5091800;27;34150;-76
2021/12/01 02:10:46;;;;;;;6.25;2.88;;;8.20;56.00;;;;;;5110141;27;35824;-76
2021/12/01 02:13:12;;;;;;;6.15;3.65;;;8.20;56.30;;;;;;5126295;27;34272;-77
2021/12/01 02:15:38;;;;;;;4.25;3.30;;;8.20;56.20;;;;;;5107502;27;34252;-76
2021/12/01 02:18:04;;;;;;;5.68;3.60;;;8.20;56.10;;;;;;5106542;27;34350;-76
2021/12/01 02:20:30;;;;;;;5.72;3.03;;;8.10;56.10;;;;;;5089734;27;36569;-77
2021/12/01 02:22:59;;;;;;;3.72;3.03;;;8.10;56.10;;;;;;5107070;27;34359;-76
2021/12/01 02:25:26;;;;;;;7.28;3.15;;;8.20;55.90;;;;;;5106427;27;34371;-76
2021/12/01 02:27:52;;;;;;;5.30;2.88;;;8.20;55.70;;;;;;5090381;27;34269;-76
2021/12/01 02:30:18;;;;;;;5.22;3.28;;;8.20;55.70;;;;;;5107792;27;35905;-76
2021/12/01 02:32:44;;;;;;;4.55;2.78;;;8.30;55.80;;;;;;5108033;27;34390;-76
2021/12/01 02:35:10;;;;;;;5.60;3.58;;;8.20;56.30;;;;;;5126731;27;34311;-77
2021/12/01 02:37:37;;;;;;;3.45;2.78;;;8.20;55.90;;;;;;5129980;27;34070;-76
2021/12/01 02:40:05;;;;;;;3.33;2.95;;;8.30;55.80;;;;;;5110434;27;36652;-76
2021/12/01 02:42:31;;;;;;;3.83;2.83;;;8.20;55.70;;;;;;5109577;27;34252;-76
2021/12/01 02:44:57;;;;;;;4.43;3.28;;;8.30;55.80;;;;;;5111236;27;34178;-77
2021/12/01 02:47:25;;;;;;;4.90;3.13;;;8.30;55.60;;;;;;5111984;27;34343;-76
2021/12/01 02:49:55;;;;;;;4.55;3.35;;;8.30;55.70;;;;;;5110036;27;36600;-76
2021/12/01 02:52:22;;;;;;;4.70;2.92;;;8.30;55.70;;;;;;5112327;27;34306;-77
2021/12/01 02:54:49;;;;;;;4.50;2.97;;;8.30;55.60;;;;;;5111142;27;34640;-76
2021/12/01 02:57:15;;;;;;;3.85;2.67;;;8.30;55.70;;;;;;5128725;27;34187;-76
2021/12/01 02:59:41;;;;;;;2.78;2.35;;;8.30;55.70;;;;;;5110898;27;35705;-76
2021/12/01 03:02:09;;;;;;;4.85;2.28;;;8.30;55.70;;;;;;5110678;27;34158;-76
2021/12/01 03:04:36;;;;;;;3.80;2.50;;;8.30;55.70;;;;;;5093636;27;34265;-77
2021/12/01 03:07:04;;;;;;;2.90;2.20;;;8.30;55.60;;;;;;5092185;28;34030;-77
2021/12/01 03:09:30;;;;;;;3.47;2.28;;;8.20;55.70;;;;;;5056109;28;35929;-76
2021/12/01 03:11:56;;;;;;;3.35;2.90;;;8.30;55.70;;;;;;5075240;28;34043;-76
2021/12/01 03:14:22;;;;;;;5.60;2.85;;;8.20;55.70;;;;;;5091854;28;34213;-77
2021/12/01 03:16:51;;;;;;;3.83;2.88;;;8.20;55.60;;;;;;5108182;28;34164;-76
2021/12/01 03:19:17;;;;;;;3.28;2.45;;;8.20;55.50;;;;;;5072598;28;34923;-77
2021/12/01 03:21:44;;;;;;;3.05;2.47;;;8.20;55.60;;;;;;5090537;28;34269;-76
2021/12/01 03:24:11;;;;;;;3.17;2.42;;;8.20;55.70;;;;;;5090944;28;34327;-76
2021/12/01 03:26:38;;;;;;;2.60;2.30;;;8.30;55.80;;;;;;5074018;28;34300;-77
2021/12/01 03:29:06;;;;;;;4.35;2.40;;;8.20;55.80;;;;;;5090900;28;36094;-76
2021/12/01 03:31:32;;;;;;;3.55;2.30;;;8.20;55.70;;;;;;5072901;28;34240;-77
2021/12/01 03:33:58;;;;;;;1.90;1.75;;;8.10;55.80;;;;;;5073531;28;34403;-77
2021/12/01 03:36:24;;;;;;;4.72;2.17;;;8.20;55.90;;;;;;5108571;28;34401;-77
2021/12/01 03:38:50;;;;;;;2.28;2.08;;;8.20;55.70;;;;;;5089218;28;34491;-77
2021/12/01 03:41:16;;;;;;;2.60;2.03;;;8.20;55.70;;;;;;5109032;28;34083;-76
2021/12/01 03:43:42;;;;;;;4.93;2.28;;;8.20;55.60;;;;;;5090382;28;34334;-77
2021/12/01 03:46:08;;;;;;;2.97;1.70;;;8.20;55.70;;;;;;5090295;28;34579;-77
2021/12/01 03:48:35;;;;;;;1.92;1.65;;;8.20;55.70;;;;;;5106287;27;35261;-76
2021/12/01 03:51:01;;;;;;;3.25;1.88;;;8.20;55.70;;;;;;5091519;28;34270;-76
2021/12/01 03:53:27;;;;;;;2.90;1.98;;;8.20;55.70;;;;;;5091455;28;34225;-76
2021/12/01 03:55:53;;;;;;;3.10;1.70;;;8.10;55.90;;;;;;5073248;28;34519;-77
2021/12/01 03:58:19;;;;;;;1.80;1.50;;;8.20;55.90;;;;;;5089219;28;36424;-76
2021/12/01 04:00:46;;;;;;;1.90;1.50;;;8.10;55.90;;;;;;5090129;28;34276;-76
2021/12/01 04:03:12;;;;;;;2.13;1.88;;;8.10;55.90;;;;;;5072131;28;34204;-76
2021/12/01 04:05:38;;;;;;;1.80;1.58;;;8.10;56.00;;;;;;5077353;28;34206;-77
2021/12/01 04:08:07;;;;;;;3.03;1.50;;;8.10;55.70;;;;;;5105745;28;35486;-77
2021/12/01 04:10:34;;;;;;;1.70;1.60;;;8.10;56.10;;;;;;5090899;28;34158;-77
2021/12/01 04:13:00;;;;;;;2.10;1.58;;;8.10;55.90;;;;;;5107513;28;34175;-77
2021/12/01 04:15:26;;;;;;;2.00;1.80;;;8.00;55.70;;;;;;5087948;28;34266;-76
2021/12/01 04:17:52;;;;;;;1.65;1.52;;;8.10;55.90;;;;;;5104625;28;34315;-77
2021/12/01 04:20:18;;;;;;;3.00;1.92;;;8.10;55.80;;;;;;5106847;28;34207;-76
2021/12/01 04:22:47;;;;;;;1.98;1.80;;;8.10;55.90;;;;;;5106520;28;34127;-76
2021/12/01 04:25:13;;;;;;;2.58;1.92;;;8.10;55.80;;;;;;5072053;28;34428;-76
2021/12/01 04:27:39;;;;;;;1.90;1.77;;;8.10;55.80;;;;;;5106439;28;36525;-76
2021/12/01 04:30:09;;;;;;;4.20;3.13;;;8.00;55.70;;;;;;5105313;28;34109;-77
2021/12/01 04:32:35;;;;;;;5.03;2.72;;;8.10;55.80;;;;;;5090202;28;34085;-76
2021/12/01 04:35:02;;;;;;;3.13;2.40;;;8.10;55.70;;;;;;5091469;28;34242;-77
2021/12/01 04:37:28;;;;;;;2.47;1.92;;;8.10;55.70;;;;;;5106484;28;36495;-76
2021/12/01 04:39:54;;;;;;;3.92;2.22;;;8.10;55.70;;;;;;5106883;28;34331;-77
2021/12/01 04:42:21;;;;;;;3.72;2.13;;;8.10;55.50;;;;;;5090798;28;34265;-76
2021/12/01 04:44:47;;;;;;;3.10;2.53;;;8.10;55.60;;;;;;5107828;28;34632;-77
2021/12/01 04:47:15;;;;;;;3.10;2.22;;;8.10;55.50;;;;;;5106580;28;36747;-76
2021/12/01 04:49:42;;;;;;;2.72;2.00;;;8.10;55.50;;;;;;5108958;27;34444;-77
2021/12/01 04:52:10;;;;;;;2.20;2.00;;;8.20;55.50;;;;;;5106839;28;34362;-76
2021/12/01 04:54:36;;;;;;;2.88;2.03;;;8.10;55.60;;;;;;5108552;27;34207;-76
2021/12/01 04:57:04;;;;;;;2.47;1.83;;;8.10;55.70;;;;;;5106024;28;36273;-76
2021/12/01 04:59:32;;;;;;;3.13;2.00;;;8.10;55.70;;;;;;5072148;28;34105;-76
2021/12/01 05:01:58;;;;;;;2.45;1.73;;;8.10;55.60;;;;;;5089850;28;34020;-76
2021/12/01 05:04:24;;;;;;;2.10;1.90;;;8.20;55.60;;;;;;5108887;27;34104;-76
2021/12/01 05:06:50;;;;;;;2.22;1.80;;;8.20;55.70;;;;;;5125591;27;34341;-77
2021/12/01 05:09:16;;;;;;;2.47;2.13;;;8.10;55.60;;;;;;5093457;27;34155;-76
2021/12/01 05:11:43;;;;;;;3.60;1.98;;;8.10;55.70;;;;;;5108649;27;34262;-76
2021/12/01 05:14:10;;;;;;;3.42;1.83;;;8.10;55.70;;;;;;5127857;27;34240;-76
2021/12/01 05:16:37;;;;;;;4.72;2.35;;;8.10;55.90;;;;;;5126486;27;34178;-76
2021/12/01 05:19:05;;;;;;;2.08;1.70;;;8.10;55.90;;;;;;5074201;27;34436;-76
2021/12/01 05:21:32;;;;;;;2.08;1.85;;;8.00;55.90;;;;;;5108140;27;34593;-76
2021/12/01 05:23:59;;;;;;;2.15;1.95;;;8.00;56.00;;;;;;5108656;27;34184;-77
2021/12/01 05:26:25;;;;;;;2.20;1.77;;;8.00;55.90;;;;;;5126817;27;34175;-76
2021/12/01 05:28:51;;;;;;;2.38;1.80;;;8.00;56.20;;;;;;5090901;27;34197;-76
2021/12/01 05:31:17;;;;;;;1.80;1.70;;;8.00;56.10;;;;;;5108745;27;34265;-76
2021/12/01 05:33:44;;;;;;;2.38;1.60;;;8.00;56.10;;;;;;5125767;27;34160;-76
2021/12/01 05:36:10;;;;;;;3.00;1.90;;;8.00;56.10;;;;;;5126627;27;34149;-77
2021/12/01 05:38:36;;;;;;;2.22;1.45;;;8.00;56.20;;;;;;5107348;27;34140;-77
2021/12/01 05:41:02;;;;;;;4.63;1.52;;;8.00;56.20;;;;;;5108293;27;34411;-76
2021/12/01 05:43:30;;;;;;;1.50;1.38;;;8.00;56.20;;;;;;5091357;27;34400;-77
2021/12/01 05:45:56;;;;;;;1.17;1.10;;;8.00;56.40;;;;;;5090537;27;35825;-76
2021/12/01 05:48:22;;;;;;;1.20;1.17;;;8.00;56.20;;;;;;5125859;27;34370;-76
2021/12/01 05:50:49;;;;;;;1.80;1.23;;;8.00;56.30;;;;;;5124594;27;34485;-76
2021/12/01 05:53:15;;;;;;;1.52;1.20;;;8.00;56.30;;;;;;5107938;27;34359;-76
2021/12/01 05:55:42;;;;;;;1.27;1.17;;;8.00;56.30;;;;;;5123629;27;34466;-76
2021/12/01 05:58:08;;;;;;;1.40;1.30;;;8.00;56.30;;;;;;5124708;27;34202;-77
2021/12/01 06:00:35;;;;;;;1.35;1.25;;;8.00;56.30;;;;;;5107271;27;34312;-76
2021/12/01 06:03:01;;;;;;;1.30;1.10;;;8.00;57.00;;;;;;5091108;27;34346;-76
2021/12/01 06:05:28;;;;;;;1.17;0.95;;;8.00;56.40;;;;;;5106690;27;35676;-76
2021/12/01 06:08:06;;;;;;;0.80;0.80;;;8.00;56.40;;;;;;5090453;27;34441;-76
2021/12/01 06:10:33;;;;;;;1.15;1.00;;;8.00;56.30;;;;;;5108524;27;34122;-76
2021/12/01 06:12:59;;;;;;;1.95;1.00;;;8.00;56.50;;;;;;5110015;27;34106;-77
2021/12/01 06:15:25;;;;;;;1.10;1.05;;;8.00;56.40;;;;;;5093560;27;35774;-76
2021/12/01 06:17:51;;;;;;;1.15;1.08;;;8.00;56.90;;;;;;5109384;27;34151;-76
2021/12/01 06:20:19;;;;;;;2.97;1.20;;;8.00;56.50;;;;;;5129330;27;34302;-76
2021/12/01 06:22:45;;;;;;;1.38;1.27;;;8.00;56.50;;;;;;5109625;27;34376;-76
2021/12/01 06:25:12;;;;;;;1.25;1.10;;;8.00;56.60;;;;;;5094619;27;36515;-76
2021/12/01 06:27:38;;;;;;;1.05;1.05;;;8.00;56.80;;;;;;5112049;27;34119;-76
2021/12/01 06:30:05;;;;;;;2.38;0.98;;;8.00;56.70;;;;;;5129494;27;34374;-77
2021/12/01 06:32:32;;;;;;;2.30;1.25;;;8.10;56.40;;;;;;5076030;27;34192;-77
2021/12/01 06:34:58;;;;;;;1.20;1.10;;;8.10;56.50;;;;;;5128454;27;35372;-77
2021/12/01 06:37:24;;;;;;;1.17;0.80;;;8.20;56.40;;;;;;5092792;27;34426;-77
2021/12/01 06:39:51;;;;;;;0.90;0.90;;;8.10;56.40;;;;;;5109163;27;34205;-77
2021/12/01 06:42:18;;;;;;;1.42;0.95;;;8.10;56.40;;;;;;5109746;27;34188;-77
2021/12/01 06:44:44;;;;;;;1.98;1.27;;;8.10;56.30;;;;;;5109494;27;35782;-77
2021/12/01 06:47:10;;;;;;;1.00;0.90;;;8.10;56.50;;;;;;5093956;27;34436;-77
2021/12/01 06:49:36;;;;;;;2.13;0.95;;;8.10;56.60;;;;;;5109357;27;34206;-77
2021/12/01 06:52:02;;;;;;;0.88;0.88;;;8.10;56.40;;;;;;5128558;27;34236;-77
2021/12/01 06:54:28;;;;;;;1.30;0.98;;;8.20;56.30;;;;;;5128325;27;34336;-77
2021/12/01 06:56:54;;;;;;;0.60;0.60;;;8.20;56.40;;;;;;5128380;27;34298;-77
2021/12/01 06:59:20;;;;;;;2.42;0.80;;;8.20;56.30;;;;;;5128924;27;34206;-76
2021/12/01 07:01:47;;;;;;;2.03;0.90;;;8.20;56.30;;;;;;5109680;27;34232;-77
2021/12/01 07:04:14;;;;;;;1.70;0.93;;;8.30;56.30;;;;;;5128291;27;34314;-76
2021/12/01 07:06:40;;;;;;;0.77;0.77;;;8.30;56.20;;;;;;5107960;27;34320;-77
2021/12/01 07:09:06;;;;;;;0.57;0.57;;;8.30;56.10;;;;;;5093263;27;34376;-76
2021/12/01 07:11:32;;;;;;;0.60;0.60;;;8.30;56.20;;;;;;5109761;27;34265;-77
2021/12/01 07:13:58;;;;;;;0.50;0.47;;;8.40;56.10;;;;;;5091729;27;35678;-77
2021/12/01 07:16:25;;;;;;;1.35;0.75;;;8.40;56.10;;;;;;5092396;27;34289;-77
2021/12/01 07:18:51;;;;;;;0.40;0.40;;;8.40;56.10;;;;;;5109732;27;34058;-76
2021/12/01 07:21:18;;;;;;;0.60;0.60;;;8.40;56.00;;;;;;5089631;28;34100;-78
2021/12/01 07:23:44;;;;;;;0.50;0.50;;;8.40;56.10;;;;;;5087917;28;34246;-78
2021/12/01 07:26:12;;;;;;;0.50;0.50;;;8.40;56.10;;;;;;5088749;27;34069;-78
2021/12/01 07:28:38;;;;;;;0.57;0.50;;;8.50;55.90;;;;;;5087711;28;34421;-76
2021/12/01 07:31:04;;;;;;;0.50;0.50;;;8.50;56.00;;;;;;5088152;28;34460;-76
2021/12/01 07:33:30;;;;;;;0.30;0.30;;;8.50;55.90;;;;;;5070425;28;35602;-76
2021/12/01 07:35:56;;;;;;;0.82;0.40;;;8.50;55.90;;;;;;5088379;28;34371;-76
2021/12/01 07:38:22;;;;;;;0.77;0.30;;;8.50;55.80;;;;;;5107828;28;34276;-76
2021/12/01 07:40:49;;;;;;;0.52;0.30;;;8.60;55.70;;;;;;5107960;28;34178;-77
2021/12/01 07:43:15;;;;;;;0.30;0.30;;;8.60;55.80;;;;;;5087788;28;35281;-77
2021/12/01 07:45:43;;;;;;;0.40;0.40;;;8.60;55.70;;;;;;5088270;28;34180;-76
2021/12/01 07:48:11;;;;;;;0.32;0.32;;;8.60;55.80;;;;;;5072737;28;34100;-77
2021/12/01 07:50:37;;;;;;;0.30;0.30;;;8.60;55.70;;;;;;5089744;28;34264;-77
2021/12/01 07:53:03;;;;;;;0.47;0.47;;;8.70;55.70;;;;;;5089456;28;35700;-77
2021/12/01 07:55:29;;;;;;;0.52;0.47;;;8.70;55.70;;;;;;5089805;28;34316;-77
2021/12/01 07:57:55;;;;;;;0.40;0.40;;;8.70;55.70;;;;;;5106621;28;34205;-77
2021/12/01 08:00:22;;;;;;;0.30;0.30;;;8.70;55.70;;;;;;5089951;28;34543;-77
2021/12/01 08:02:48;;;;;;;0.73;0.40;;;8.70;55.60;;;;;;5073190;28;36015;-77
2021/12/01 08:05:14;;;;;;;0.38;0.38;;;8.70;55.70;;;;;;5072436;28;34160;-77
2021/12/01 08:07:40;;;;;;;1.70;0.35;;;8.80;55.60;;;;;;5088099;28;34213;-77
2021/12/01 08:10:08;;;;;;;1.65;0.40;;;8.80;55.60;;;;;;5088669;28;34072;-77
2021/12/01 08:12:34;;;;;;;0.43;0.32;;;8.80;55.60;;;;;;5055942;28;35789;-77
2021/12/01 08:15:03;;;;;;;0.47;0.40;;;8.80;55.70;;;;;;5072817;28;34313;-76
2021/12/01 08:17:29;;;;;;;0.25;0.25;;;8.80;55.70;;;;;;5089735;28;34228;-76
2021/12/01 08:20:14;;;;;;;1.33;0.40;;;8.70;55.80;;;;;;5088620;28;34153;-76
2021/12/01 08:22:40;;;;;;;0.30;0.30;;;8.80;55.70;;;;;;5089354;28;35830;-76
2021/12/01 08:25:06;;;;;;;0.93;0.35;;;8.80;55.80;;;;;;5089246;28;34348;-76
2021/12/01 08:27:32;;;;;;;4.88;0.40;;;8.80;55.80;;;;;;5055307;28;34315;-76
2021/12/01 08:29:58;;;;;;;0.30;0.20;;;8.80;55.80;;;;;;5107051;28;34234;-77
2021/12/01 08:32:24;;;;;;;0.30;0.30;;;8.80;55.80;;;;;;5106028;28;34291;-77
2021/12/01 08:34:51;;;;;;;0.30;0.30;;;8.80;55.70;;;;;;5052920;28;34113;-77
2021/12/01 08:37:19;;;;;;;1.00;0.30;;;8.80;55.90;;;;;;5088139;28;34111;-77
2021/12/01 08:39:48;;;;;;;0.25;0.25;;;8.80;55.90;;;;;;5087600;28;34147;-78
2021/12/01 08:42:15;;;;;;;0.57;0.38;;;8.90;55.90;;;;;;5087665;28;35939;-78
2021/12/01 08:44:45;;;;;;;0.15;0.15;;;8.90;56.00;;;;;;5087732;28;34301;-77
2021/12/01 08:47:13;;;;;;;0.30;0.30;;;8.90;55.90;;;;;;5088073;28;34134;-77
2021/12/01 08:49:40;;;;;;;0.25;0.25;;;8.80;56.20;;;;;;5086194;27;34478;-77
2021/12/01 08:52:06;;;;;;;0.15;0.15;;;8.90;56.00;;;;;;5086489;28;35603;-77
2021/12/01 08:54:32;;;;;;;0.20;0.20;;;8.80;56.00;;;;;;5069879;28;34449;-77
2021/12/01 08:56:58;;;;;;;0.28;0.28;;;8.80;56.10;;;;;;5086540;28;34765;-77
2021/12/01 08:59:25;;;;;;;0.45;0.43;;;8.90;56.20;;;;;;5069664;28;34400;-77
2021/12/01 09:01:51;;;;;;;0.22;0.22;;;8.90;56.30;;;;;;5085705;28;35884;-77
2021/12/01 09:04:18;;;;;;;0.22;0.22;;;8.80;56.30;;;;;;5086751;28;34200;-78
2021/12/01 09:06:44;;;;;;;0.73;0.30;;;8.80;56.30;;;;;;5103455;28;34263;-77
2021/12/01 09:09:18;;;;;;;0.55;0.30;;;8.90;56.50;;;;;;5087356;28;34012;-78
2021/12/01 09:11:46;;;;;;;0.20;0.20;;;8.80;56.40;;;;;;5087778;28;34360;-78
2021/12/01 09:14:12;;;;;;;0.30;0.30;;;8.90;56.50;;;;;;5069410;28;34130;-77
2021/12/01 09:16:40;;;;;;;0.80;0.50;;;8.90;56.40;;;;;;5104845;28;34256;-77
2021/12/01 09:19:06;;;;;;;0.30;0.20;;;9.00;56.20;;;;;;5086138;28;34148;-77
2021/12/01 09:21:32;;;;;;;0.38;0.22;;;8.90;56.30;;;;;;5069099;28;36021;-77
2021/12/01 09:23:59;;;;;;;0.28;0.28;;;8.90;56.30;;;;;;5086800;28;34231;-76
2021/12/01 09:26:25;;;;;;;0.20;0.20;;;9.00;56.30;;;;;;5070115;28;34216;-77
2021/12/01 09:28:51;;;;;;;0.63;0.30;;;9.00;56.20;;;;;;5086414;28;34206;-77
2021/12/01 09:31:17;;;;;;;0.28;0.28;;;9.00;56.20;;;;;;5086240;28;36180;-77
2021/12/01 09:33:44;;;;;;;0.30;0.30;;;9.00;56.30;;;;;;5085771;28;34386;-77
2021/12/01 09:36:11;;;;;;;0.60;0.30;;;9.10;56.60;;;;;;5085755;28;34284;-78
2021/12/01 09:38:37;;;;;;;0.60;0.32;;;9.10;56.50;;;;;;5104250;28;34436;-77
2021/12/01 09:41:03;;;;;;;0.20;0.20;;;9.20;56.40;;;;;;5086803;28;35080;-78
2021/12/01 09:43:31;;;;;;;0.38;0.30;;;9.20;56.30;;;;;;5086421;28;34203;-77
2021/12/01 09:45:59;;;;;;;0.20;0.20;;;9.30;56.50;;;;;;5103404;28;34269;-78
2021/12/01 09:48:28;;;;;;;0.32;0.32;;;9.30;56.60;;;;;;5086038;28;34202;-77
2021/12/01 09:50:54;;;;;;;0.30;0.30;;;9.30;56.80;;;;;;5085784;28;36386;-77
2021/12/01 09:53:20;;;;;;;0.20;0.20;;;9.30;56.50;;;;;;5103871;28;34168;-78
2021/12/01 09:55:46;;;;;;;0.28;0.25;;;9.30;56.70;;;;;;5103415;28;34202;-77
2021/12/01 09:58:17;;;;;;;0.20;0.20;;;9.30;56.60;;;;;;5085329;28;34731;-77
2021/12/01 10:00:53;;;;;;;0.55;0.30;;;9.30;56.90;;;;;;5053098;28;36285;-77
2021/12/01 10:03:19;;;;;;;1.02;0.20;;;9.40;56.80;;;;;;5086554;28;34447;-78
2021/12/01 10:05:51;;;;;;;0.20;0.20;;;9.40;56.70;;;;;;5068524;28;34002;-78
2021/12/01 10:08:35;;;;;;;0.30;0.30;;;9.40;57.00;;;;;;5085475;28;34384;-78
2021/12/01 10:11:11;;;;;;;1.20;0.30;;;9.40;56.70;;;;;;5103902;28;35031;-78
2021/12/01 10:13:42;;;;;;;0.80;0.20;;;9.50;56.70;;;;;;5085804;27;34567;-77
2021/12/01 10:16:11;;;;;;;0.20;0.20;;;9.50;56.80;;;;;;5069644;28;34441;-77
2021/12/01 10:18:41;;;;;;;0.20;0.20;;;9.50;56.60;;;;;;5084933;28;34372;-77
2021/12/01 10:21:13;;;;;;;0.63;0.20;;;9.50;56.70;;;;;;5103879;28;34319;-77
2021/12/01 10:23:45;;;;;;;0.20;0.20;;;9.50;56.90;;;;;;5052320;28;34287;-77
2021/12/01 10:26:16;;;;;;;0.32;0.30;;;9.60;57.00;;;;;;5085195;28;34104;-78
2021/12/01 10:28:46;;;;;;;0.20;0.20;;;9.60;56.80;;;;;;5084532;28;34407;-77
2021/12/01 10:31:13;;;;;;;0.20;0.20;;;9.60;57.10;;;;;;5084880;28;35513;-77
2021/12/01 10:33:40;;;;;;;0.20;0.20;;;9.60;56.90;;;;;;5068267;28;34088;-77
2021/12/01 10:36:08;;;;;;;0.22;0.22;;;9.70;56.90;;;;;;5085351;28;34012;-78
2021/12/01 10:38:37;;;;;;;0.30;0.30;;;9.70;57.10;;;;;;5069833;28;34368;-78
2021/12/01 10:41:07;;;;;;;0.50;0.20;;;9.70;56.80;;;;;;5068965;28;36226;-76
2021/12/01 10:43:42;;;;;;;0.25;0.25;;;9.80;57.00;;;;;;5103417;28;34056;-77
2021/12/01 10:46:11;;;;;;;0.20;0.20;;;9.80;57.10;;;;;;5085618;28;34321;-76
2021/12/01 10:48:39;;;;;;;0.30;0.30;;;9.80;56.70;;;;;;5067578;28;34430;-77
2021/12/01 10:51:11;;;;;;;0.30;0.30;;;9.80;56.70;;;;;;5084904;28;36264;-76
2021/12/01 10:53:38;;;;;;;0.30;0.30;;;9.80;56.70;;;;;;5102564;28;34200;-77
2021/12/01 10:56:07;;;;;;;2.63;0.25;;;9.80;56.90;;;;;;5104029;28;34312;-77
2021/12/01 10:58:36;;;;;;;0.20;0.20;;;9.90;57.00;;;;;;5070032;28;34722;-77
2021/12/01 11:01:03;;;;;;;0.75;0.20;;;9.90;56.90;;;;;;5088967;28;34365;-77
2021/12/01 11:03:32;;;;;;;0.22;0.22;;;9.90;56.80;;;;;;5088333;28;34313;-77
2021/12/01 11:06:09;;;;;;;0.20;0.20;;;9.90;56.80;;;;;;5084668;28;34266;-77
2021/12/01 11:08:39;;;;;;;0.22;0.22;;;10.00;57.00;;;;;;5068363;28;34448;-77
2021/12/01 11:11:09;;;;;;;0.60;0.30;;;10.00;56.80;;;;;;5086526;28;34964;-78
2021/12/01 11:13:37;;;;;;;0.10;0.10;;;10.00;56.90;;;;;;5085503;28;34124;-76
2021/12/01 11:16:06;;;;;;;0.25;0.25;;;10.00;57.00;;;;;;5068065;28;34263;-77
2021/12/01 11:18:36;;;;;;;0.85;0.30;;;10.10;56.80;;;;;;5067954;28;34076;-77
2021/12/01 11:21:09;;;;;;;0.20;0.20;;;10.00;56.80;;;;;;5084297;28;35558;-76
2021/12/01 11:23:37;;;;;;;0.63;0.13;;;10.10;56.70;;;;;;5084481;28;34154;-77
2021/12/01 11:26:08;;;;;;;0.30;0.30;;;10.10;56.70;;;;;;5085204;28;34191;-77
2021/12/01 11:28:39;;;;;;;0.20;0.20;;;10.10;56.60;;;;;;5084956;28;34416;-76
2021/12/01 11:31:09;;;;;;;0.20;0.20;;;10.20;56.80;;;;;;5067135;28;35630;-76
2021/12/01 11:33:36;;;;;;;0.20;0.20;;;10.10;56.70;;;;;;5068128;28;34314;-77
2021/12/01 11:36:07;;;;;;;0.20;0.20;;;10.20;56.60;;;;;;5085280;28;34221;-76
2021/12/01 11:38:35;;;;;;;0.20;0.20;;;10.10;56.70;;;;;;5067722;28;34394;-76
2021/12/01 11:41:04;;;;;;;0.20;0.20;;;10.20;56.60;;;;;;5084131;28;35784;-76
2021/12/01 11:43:32;;;;;;;0.30;0.30;;;10.20;56.60;;;;;;5068158;28;34195;-77
2021/12/01 11:46:00;;;;;;;0.20;0.20;;;10.20;56.60;;;;;;5085030;28;34280;-76
2021/12/01 11:48:30;;;;;;;0.40;0.30;;;10.20;56.50;;;;;;5067869;28;34210;-76
2021/12/01 11:51:10;;;;;;;0.20;0.20;;;10.30;56.80;;;;;;5067012;28;35485;-76
2021/12/01 11:53:40;;;;;;;0.43;0.20;;;10.30;56.70;;;;;;5085129;28;34411;-76
2021/12/01 11:56:29;;;;;;;0.68;0.22;;;10.30;56.70;;;;;;5067295;28;34190;-76
2021/12/01 11:59:19;;;;;;;1.55;0.30;;;10.30;56.80;;;;;;5069633;28;34351;-78
2021/12/01 12:02:00;;;;;;;0.17;0.17;;;10.20;56.80;;;;;;5083528;28;35706;-77
2021/12/01 12:04:44;;;;;;;0.10;0.10;;;10.20;56.70;;;;;;5066756;28;34221;-76
2021/12/01 12:07:15;;;;;;;0.30;0.30;;;10.20;56.60;;;;;;5067210;28;34403;-77
2021/12/01 12:10:01;;;;;;;1.20;0.50;;;10.10;56.70;;;;;;5083337;28;34147;-76
2021/12/01 12:12:27;;;;;;;0.30;0.30;;;10.20;56.80;;;;;;5084888;28;34898;-76
2021/12/01 12:14:55;;;;;;;0.30;0.20;;;10.10;56.80;;;;;;5084439;28;34270;-75
2021/12/01 12:17:32;;;;;;;0.43;0.32;;;10.00;57.20;;;;;;5083238;28;34350;-76
2021/12/01 12:20:03;;;;;;;0.20;0.20;;;10.20;57.00;;;;;;5050845;28;34154;-76
2021/12/01 12:22:51;;;;;;;0.28;0.28;;;10.20;56.80;;;;;;5084047;28;35474;-76
2021/12/01 12:25:35;;;;;;;1.85;0.35;;;10.20;56.60;;;;;;5070163;28;34147;-76
2021/12/01 12:28:21;;;;;;;0.50;0.38;;;10.30;56.80;;;;;;5084197;28;34280;-77
2021/12/01 12:30:47;;;;;;;0.45;0.30;;;10.30;56.90;;;;;;5083213;28;34249;-76
2021/12/01 12:33:20;;;;;;;0.40;0.40;;;10.30;56.70;;;;;;5083381;28;36508;-76
2021/12/01 12:35:49;;;;;;;0.98;0.47;;;10.30;56.70;;;;;;5065682;28;34466;-76
2021/12/01 12:38:16;;;;;;;1.48;0.40;;;10.40;56.70;;;;;;5084810;28;34162;-77
2021/12/01 12:40:43;;;;;;;0.57;0.32;;;10.30;56.60;;;;;;5065642;28;34112;-77
2021/12/01 12:43:15;;;;;;;1.27;0.40;;;10.30;56.60;;;;;;5046595;28;35894;-77
2021/12/01 12:45:59;;;;;;;2.58;0.50;;;10.30;56.60;;;;;;5066509;28;34120;-77
2021/12/01 12:48:28;;;;;;;0.52;0.40;;;10.30;56.80;;;;;;5053495;28;34530;-76
2021/12/01 12:51:25;;;;;;;0.22;0.22;;;10.30;56.70;;;;;;5081881;28;34589;-77
2021/12/01 12:54:12;;;;;;;1.05;0.30;;;10.30;56.90;;;;;;5082952;28;34522;-76
2021/12/01 12:56:43;;;;;;;0.30;0.30;;;10.20;57.40;;;;;;5068699;28;34153;-76
2021/12/01 12:59:30;;;;;;;1.55;0.40;;;10.20;57.00;;;;;;5049041;28;34116;-76
2021/12/01 13:02:32;;;;;;;0.75;0.40;;;10.20;57.10;;;;;;5082126;28;34167;-76
2021/12/01 13:05:01;;;;;;;0.30;0.30;;;10.20;55.90;;;;;;5056606;28;36041;-76